sensor_id;sensor_type;location;lat;lon;timestamp;temperature;humidity
6696;DHT22;3385;48.928;10.330;2023-03-01T00:02:01;-5.00;99.90
6696;DHT22;3385;48.928;10.330;2023-03-01T00:04:27;-4.70;99.90
6696;DHT22;3385;48.928;10.330;2023-03-01T00:06:53;-4.70;99.90
6696;DHT22;3385;48.928;10.330;2023-03-01T00:09:19;-4.60;99.90
6696;DHT22;3385;48.928;10.330;2023-03-01T00:11:45;-4.20;99.90
6696;DHT22;3385;48.928;10.330;2023-03-01T00:14:11;-4.40;99.90
6696;DHT22;3385;48.928;10.330;2023-03-01T00:16:40;-4.30;99.90
6696;DHT22;3385;48.928;10.330;2023-03-01T00:19:07;-4.10;99.90
6696;DHT22;3385;48.928;10.330;2023-03-01T00:21:35;-3.90;99.90
6696;DHT22;3385;48.928;10.330;2023-03-01T00:24:01;-3.90;99.90
6696;DHT22;3385;48.928;10.330;2023-03-01T00:26:28;-3.60;99.90
6696;DHT22;3385;48.928;10.330;2023-03-01T00:28:54;-3.50;99.90
6696;DHT22;3385;48.928;10.330;2023-03-01T00:31:25;-3.50;99.90
6696;DHT22;3385;48.928;10.330;2023-03-01T00:33:55;-3.10;99.90
6696;DHT22;3385;48.928;10.330;2023-03-01T00:36:29;-3.30;99.90
6696;DHT22;3385;48.928;10.330;2023-03-01T00:38:56;-3.20;99.90
6696;DHT22;3385;48.928;10.330;2023-03-01T00:41:22;-3.10;99.90
6696;DHT22;3385;48.928;10.330;2023-03-01T00:43:49;-3.00;99.90
6696;DHT22;3385;48.928;10.330;2023-03-01T00:46:18;-2.90;99.90
6696;DHT22;3385;48.928;10.330;2023-03-01T00:48:44;-2.80;99.90
6696;DHT22;3385;48.928;10.330;2023-03-01T00:51:19;-2.80;99.90
6696;DHT22;3385;48.928;10.330;2023-03-01T00:53:46;-2.60;99.90
6696;DHT22;3385;48.928;10.330;2023-03-01T00:56:13;-2.50;99.90
6696;DHT22;3385;48.928;10.330;2023-03-01T00:58:39;-2.00;99.90
6696;DHT22;3385;48.928;10.330;2023-03-01T01:06:22;-2.10;99.90
6696;DHT22;3385;48.928;10.330;2023-03-01T01:08:49;-2.20;99.90
6696;DHT22;3385;48.928;10.330;2023-03-01T01:11:16;-2.20;99.90
6696;DHT22;3385;48.928;10.330;2023-03-01T01:13:44;-2.20;99.90
6696;DHT22;3385;48.928;10.330;2023-03-01T01:16:10;-2.10;99.90
6696;DHT22;3385;48.928;10.330;2023-03-01T01:18:36;-2.20;99.90
6696;DHT22;3385;48.928;10.330;2023-03-01T01:21:07;-2.00;99.90
6696;DHT22;3385;48.928;10.330;2023-03-01T01:23:33;-2.00;99.90
6696;DHT22;3385;48.928;10.330;2023-03-01T01:26:07;-1.90;99.90
6696;DHT22;3385;48.928;10.330;2023-03-01T01:28:34;-2.00;99.90
6696;DHT22;3385;48.928;10.330;2023-03-01T01:30:59;-1.80;99.90
6696;DHT22;3385;48.928;10.330;2023-03-01T01:33:25;-1.80;99.90
6696;DHT22;3385;48.928;10.330;2023-03-01T01:35:52;-1.70;99.90
6696;DHT22;3385;48.928;10.330;2023-03-01T01:38:18;-1.90;99.90
6696;DHT22;3385;48.928;10.330;2023-03-01T01:40:44;-1.80;99.90
6696;DHT22;3385;48.928;10.330;2023-03-01T01:43:23;-1.80;99.90
6696;DHT22;3385;48.928;10.330;2023-03-01T01:45:50;-1.60;99.90
6696;DHT22;3385;48.928;10.330;2023-03-01T01:48:22;-1.60;99.90
6696;DHT22;3385;48.928;10.330;2023-03-01T01:50:57;-1.80;99.90
6696;DHT22;3385;48.928;10.330;2023-03-01T01:53:25;-1.60;99.90
6696;DHT22;3385;48.928;10.330;2023-03-01T01:55:57;-1.60;99.90
6696;DHT22;3385;48.928;10.330;2023-03-01T01:58:26;-1.50;99.90
6696;DHT22;3385;48.928;10.330;2023-03-01T02:00:53;-1.60;99.90
6696;DHT22;3385;48.928;10.330;2023-03-01T02:03:23;-1.50;99.90
6696;DHT22;3385;48.928;10.330;2023-03-01T02:05:55;-1.70;99.90
6696;DHT22;3385;48.928;10.330;2023-03-01T02:08:24;-1.70;99.90
6696;DHT22;3385;48.928;10.330;2023-03-01T02:10:52;-1.90;99.90
6696;DHT22;3385;48.928;10.330;2023-03-01T02:13:18;-1.70;99.90
6696;DHT22;3385;48.928;10.330;2023-03-01T02:15:44;-1.60;99.90
6696;DHT22;3385;48.928;10.330;2023-03-01T02:18:12;-1.50;99.90
6696;DHT22;3385;48.928;10.330;2023-03-01T02:23:14;-1.70;99.90
6696;DHT22;3385;48.928;10.330;2023-03-01T02:26:09;-1.40;99.90
6696;DHT22;3385;48.928;10.330;2023-03-01T02:28:40;-1.30;99.90
6696;DHT22;3385;48.928;10.330;2023-03-01T02:31:09;-1.40;99.90
6696;DHT22;3385;48.928;10.330;2023-03-01T02:33:55;-1.10;99.90
6696;DHT22;3385;48.928;10.330;2023-03-01T02:36:29;-1.30;99.90
6696;DHT22;3385;48.928;10.330;2023-03-01T02:38:58;-1.50;99.90
6696;DHT22;3385;48.928;10.330;2023-03-01T02:41:25;-1.20;99.90
6696;DHT22;3385;48.928;10.330;2023-03-01T02:43:51;-1.10;99.90
6696;DHT22;3385;48.928;10.330;2023-03-01T02:46:23;-1.10;99.90
6696;DHT22;3385;48.928;10.330;2023-03-01T02:48:55;-1.00;99.90
6696;DHT22;3385;48.928;10.330;2023-03-01T02:56:45;-0.70;99.90
6696;DHT22;3385;48.928;10.330;2023-03-01T02:59:15;-1.00;99.90
6696;DHT22;3385;48.928;10.330;2023-03-01T03:01:41;-1.30;99.90
6696;DHT22;3385;48.928;10.330;2023-03-01T03:04:10;-1.10;99.90
6696;DHT22;3385;48.928;10.330;2023-03-01T03:06:36;-1.20;99.90
6696;DHT22;3385;48.928;10.330;2023-03-01T03:09:03;-1.00;99.90
6696;DHT22;3385;48.928;10.330;2023-03-01T03:11:29;-1.30;99.90
6696;DHT22;3385;48.928;10.330;2023-03-01T03:13:56;-1.20;99.90
6696;DHT22;3385;48.928;10.330;2023-03-01T03:16:23;-1.20;99.90
6696;DHT22;3385;48.928;10.330;2023-03-01T03:18:49;-1.40;99.90
6696;DHT22;3385;48.928;10.330;2023-03-01T03:21:15;-1.10;99.90
6696;DHT22;3385;48.928;10.330;2023-03-01T03:23:42;-1.40;99.90
6696;DHT22;3385;48.928;10.330;2023-03-01T03:26:07;-1.40;99.90
6696;DHT22;3385;48.928;10.330;2023-03-01T03:28:34;-1.10;99.90
6696;DHT22;3385;48.928;10.330;2023-03-01T03:31:01;-1.20;99.90
6696;DHT22;3385;48.928;10.330;2023-03-01T03:33:32;-1.20;99.90
6696;DHT22;3385;48.928;10.330;2023-03-01T03:35:58;-1.20;99.90
6696;DHT22;3385;48.928;10.330;2023-03-01T03:38:24;-0.90;99.90
6696;DHT22;3385;48.928;10.330;2023-03-01T03:43:30;-1.00;99.90
6696;DHT22;3385;48.928;10.330;2023-03-01T03:45:56;-1.30;99.90
6696;DHT22;3385;48.928;10.330;2023-03-01T03:48:25;-1.30;99.90
6696;DHT22;3385;48.928;10.330;2023-03-01T03:50:54;-1.40;99.90
6696;DHT22;3385;48.928;10.330;2023-03-01T03:53:21;-1.20;99.90
6696;DHT22;3385;48.928;10.330;2023-03-01T03:55:47;-1.20;99.90
6696;DHT22;3385;48.928;10.330;2023-03-01T03:58:15;-1.20;99.90
6696;DHT22;3385;48.928;10.330;2023-03-01T04:00:43;-1.10;99.90
6696;DHT22;3385;48.928;10.330;2023-03-01T04:03:11;-1.20;99.90
6696;DHT22;3385;48.928;10.330;2023-03-01T04:05:38;-1.20;99.90
6696;DHT22;3385;48.928;10.330;2023-03-01T04:08:04;-0.90;99.90
6696;DHT22;3385;48.928;10.330;2023-03-01T04:10:38;-1.30;99.90
6696;DHT22;3385;48.928;10.330;2023-03-01T04:13:06;-1.20;99.90
6696;DHT22;3385;48.928;10.330;2023-03-01T04:15:33;-1.40;99.90
6696;DHT22;3385;48.928;10.330;2023-03-01T04:17:59;-1.20;99.90
6696;DHT22;3385;48.928;10.330;2023-03-01T04:20:28;-1.20;99.90
6696;DHT22;3385;48.928;10.330;2023-03-01T04:22:59;-0.80;99.90
6696;DHT22;3385;48.928;10.330;2023-03-01T04:25:33;-1.10;99.90
6696;DHT22;3385;48.928;10.330;2023-03-01T04:27:59;-0.90;99.90
6696;DHT22;3385;48.928;10.330;2023-03-01T04:30:25;-1.00;99.90
6696;DHT22;3385;48.928;10.330;2023-03-01T04:32:51;-1.00;99.90
6696;DHT22;3385;48.928;10.330;2023-03-01T04:35:16;-0.90;99.90
6696;DHT22;3385;48.928;10.330;2023-03-01T04:37:42;-1.00;99.90
6696;DHT22;3385;48.928;10.330;2023-03-01T04:40:08;-1.00;99.90
6696;DHT22;3385;48.928;10.330;2023-03-01T04:42:42;-1.10;99.90
6696;DHT22;3385;48.928;10.330;2023-03-01T04:45:08;-0.90;99.90
6696;DHT22;3385;48.928;10.330;2023-03-01T04:47:42;-1.00;99.90
6696;DHT22;3385;48.928;10.330;2023-03-01T04:50:11;-1.10;99.90
6696;DHT22;3385;48.928;10.330;2023-03-01T04:52:37;-1.00;99.90
6696;DHT22;3385;48.928;10.330;2023-03-01T04:55:04;-0.80;99.90
6696;DHT22;3385;48.928;10.330;2023-03-01T04:57:30;-1.30;99.90
6696;DHT22;3385;48.928;10.330;2023-03-01T04:59:56;-1.30;99.90
6696;DHT22;3385;48.928;10.330;2023-03-01T05:02:22;-1.00;99.90
6696;DHT22;3385;48.928;10.330;2023-03-01T05:04:48;-1.40;99.90
6696;DHT22;3385;48.928;10.330;2023-03-01T05:07:13;-1.40;99.90
6696;DHT22;3385;48.928;10.330;2023-03-01T05:09:46;-1.50;99.90
6696;DHT22;3385;48.928;10.330;2023-03-01T05:12:12;-1.50;99.90
6696;DHT22;3385;48.928;10.330;2023-03-01T05:14:39;-1.70;99.90
6696;DHT22;3385;48.928;10.330;2023-03-01T05:17:05;-1.90;99.90
6696;DHT22;3385;48.928;10.330;2023-03-01T05:19:31;-2.10;99.90
6696;DHT22;3385;48.928;10.330;2023-03-01T05:21:58;-1.80;99.90
6696;DHT22;3385;48.928;10.330;2023-03-01T05:24:28;-1.70;99.90
6696;DHT22;3385;48.928;10.330;2023-03-01T05:26:54;-2.40;99.90
6696;DHT22;3385;48.928;10.330;2023-03-01T05:29:22;-2.60;99.90
6696;DHT22;3385;48.928;10.330;2023-03-01T05:31:58;-2.60;99.90
6696;DHT22;3385;48.928;10.330;2023-03-01T05:34:29;-2.50;99.90
6696;DHT22;3385;48.928;10.330;2023-03-01T05:36:55;-2.80;99.90
6696;DHT22;3385;48.928;10.330;2023-03-01T05:39:22;-2.80;99.90
6696;DHT22;3385;48.928;10.330;2023-03-01T05:41:52;-2.90;99.90
6696;DHT22;3385;48.928;10.330;2023-03-01T05:44:18;-3.10;99.90
6696;DHT22;3385;48.928;10.330;2023-03-01T05:46:43;-3.10;99.90
6696;DHT22;3385;48.928;10.330;2023-03-01T05:49:10;-3.20;99.90
6696;DHT22;3385;48.928;10.330;2023-03-01T05:51:36;-3.30;99.90
6696;DHT22;3385;48.928;10.330;2023-03-01T05:54:02;-2.90;99.90
6696;DHT22;3385;48.928;10.330;2023-03-01T05:56:28;-3.30;99.90
6696;DHT22;3385;48.928;10.330;2023-03-01T05:58:54;-3.20;99.90
6696;DHT22;3385;48.928;10.330;2023-03-01T06:01:20;-3.30;99.90
6696;DHT22;3385;48.928;10.330;2023-03-01T06:03:46;-3.30;99.90
6696;DHT22;3385;48.928;10.330;2023-03-01T06:06:11;-3.40;99.90
6696;DHT22;3385;48.928;10.330;2023-03-01T06:08:37;-2.60;99.90
6696;DHT22;3385;48.928;10.330;2023-03-01T06:11:03;-3.40;99.90
6696;DHT22;3385;48.928;10.330;2023-03-01T06:13:28;-3.40;99.90
6696;DHT22;3385;48.928;10.330;2023-03-01T06:15:55;-3.40;99.90
6696;DHT22;3385;48.928;10.330;2023-03-01T06:18:21;-3.40;99.90
6696;DHT22;3385;48.928;10.330;2023-03-01T06:20:53;-3.40;99.90
6696;DHT22;3385;48.928;10.330;2023-03-01T06:23:19;-3.30;99.90
6696;DHT22;3385;48.928;10.330;2023-03-01T06:25:45;-3.50;99.90
6696;DHT22;3385;48.928;10.330;2023-03-01T06:28:11;-3.50;99.90
6696;DHT22;3385;48.928;10.330;2023-03-01T06:30:36;-3.30;99.90
6696;DHT22;3385;48.928;10.330;2023-03-01T06:33:02;-3.30;99.90
6696;DHT22;3385;48.928;10.330;2023-03-01T06:35:31;-3.20;99.90
6696;DHT22;3385;48.928;10.330;2023-03-01T06:37:58;-3.30;99.90
6696;DHT22;3385;48.928;10.330;2023-03-01T06:40:24;-3.30;99.90
6696;DHT22;3385;48.928;10.330;2023-03-01T06:42:51;-3.00;99.90
6696;DHT22;3385;48.928;10.330;2023-03-01T06:45:18;-3.00;99.90
6696;DHT22;3385;48.928;10.330;2023-03-01T06:47:44;-2.80;99.90
6696;DHT22;3385;48.928;10.330;2023-03-01T06:50:11;-2.40;99.90
6696;DHT22;3385;48.928;10.330;2023-03-01T06:52:36;-2.80;99.90
6696;DHT22;3385;48.928;10.330;2023-03-01T06:55:03;-2.70;99.90
6696;DHT22;3385;48.928;10.330;2023-03-01T06:57:29;-2.50;99.90
6696;DHT22;3385;48.928;10.330;2023-03-01T06:59:54;-2.30;99.90
6696;DHT22;3385;48.928;10.330;2023-03-01T07:02:20;-0.30;99.90
6696;DHT22;3385;48.928;10.330;2023-03-01T07:04:46;-2.40;99.90
6696;DHT22;3385;48.928;10.330;2023-03-01T07:07:14;-2.40;99.90
6696;DHT22;3385;48.928;10.330;2023-03-01T07:09:39;-2.30;99.90
6696;DHT22;3385;48.928;10.330;2023-03-01T07:12:05;-2.30;99.90
6696;DHT22;3385;48.928;10.330;2023-03-01T07:14:31;-1.80;99.90
6696;DHT22;3385;48.928;10.330;2023-03-01T07:16:57;-2.10;99.90
6696;DHT22;3385;48.928;10.330;2023-03-01T07:19:23;-1.80;99.90
6696;DHT22;3385;48.928;10.330;2023-03-01T07:21:49;-1.40;99.90
6696;DHT22;3385;48.928;10.330;2023-03-01T07:24:15;-1.50;99.90
6696;DHT22;3385;48.928;10.330;2023-03-01T07:26:40;-1.60;99.90
6696;DHT22;3385;48.928;10.330;2023-03-01T07:29:07;-1.60;99.90
6696;DHT22;3385;48.928;10.330;2023-03-01T07:31:35;-1.30;99.90
6696;DHT22;3385;48.928;10.330;2023-03-01T07:34:01;-1.10;99.90
6696;DHT22;3385;48.928;10.330;2023-03-01T07:36:26;-1.10;99.90
6696;DHT22;3385;48.928;10.330;2023-03-01T07:38:52;-1.10;99.90
6696;DHT22;3385;48.928;10.330;2023-03-01T07:41:18;-1.10;99.90
6696;DHT22;3385;48.928;10.330;2023-03-01T07:43:44;-0.90;99.90
6696;DHT22;3385;48.928;10.330;2023-03-01T07:46:10;-0.60;99.90
6696;DHT22;3385;48.928;10.330;2023-03-01T07:48:35;-0.50;99.90
6696;DHT22;3385;48.928;10.330;2023-03-01T07:51:03;-0.70;99.90
6696;DHT22;3385;48.928;10.330;2023-03-01T07:53:30;-0.70;99.90
6696;DHT22;3385;48.928;10.330;2023-03-01T07:56:07;-0.30;99.90
6696;DHT22;3385;48.928;10.330;2023-03-01T07:58:37;-0.30;99.90
6696;DHT22;3385;48.928;10.330;2023-03-01T08:01:05;0.00;99.90
6696;DHT22;3385;48.928;10.330;2023-03-01T08:03:32;0.00;99.90
6696;DHT22;3385;48.928;10.330;2023-03-01T08:06:03;0.20;99.90
6696;DHT22;3385;48.928;10.330;2023-03-01T08:08:29;0.50;99.90
6696;DHT22;3385;48.928;10.330;2023-03-01T08:10:59;0.60;99.90
6696;DHT22;3385;48.928;10.330;2023-03-01T08:13:26;0.50;99.90
6696;DHT22;3385;48.928;10.330;2023-03-01T08:15:52;0.50;99.90
6696;DHT22;3385;48.928;10.330;2023-03-01T08:18:19;1.00;99.90
6696;DHT22;3385;48.928;10.330;2023-03-01T08:20:46;1.30;99.90
6696;DHT22;3385;48.928;10.330;2023-03-01T08:23:12;1.60;99.90
6696;DHT22;3385;48.928;10.330;2023-03-01T08:25:37;1.40;99.90
6696;DHT22;3385;48.928;10.330;2023-03-01T08:28:04;1.60;99.90
6696;DHT22;3385;48.928;10.330;2023-03-01T08:30:29;1.60;99.90
6696;DHT22;3385;48.928;10.330;2023-03-01T08:32:55;1.40;99.90
6696;DHT22;3385;48.928;10.330;2023-03-01T08:35:21;1.30;99.90
6696;DHT22;3385;48.928;10.330;2023-03-01T08:37:47;1.70;99.90
6696;DHT22;3385;48.928;10.330;2023-03-01T08:40:13;1.50;99.90
6696;DHT22;3385;48.928;10.330;2023-03-01T08:42:40;1.50;99.90
6696;DHT22;3385;48.928;10.330;2023-03-01T08:45:07;1.40;99.90
6696;DHT22;3385;48.928;10.330;2023-03-01T08:47:33;1.60;99.90
6696;DHT22;3385;48.928;10.330;2023-03-01T08:49:59;1.80;99.90
6696;DHT22;3385;48.928;10.330;2023-03-01T08:52:25;1.60;99.90
6696;DHT22;3385;48.928;10.330;2023-03-01T08:54:52;2.00;99.90
6696;DHT22;3385;48.928;10.330;2023-03-01T08:57:18;2.20;99.90
6696;DHT22;3385;48.928;10.330;2023-03-01T08:59:44;2.30;99.90
6696;DHT22;3385;48.928;10.330;2023-03-01T09:02:13;2.20;99.90
6696;DHT22;3385;48.928;10.330;2023-03-01T09:04:39;2.90;99.90
6696;DHT22;3385;48.928;10.330;2023-03-01T09:07:05;2.60;99.90
6696;DHT22;3385;48.928;10.330;2023-03-01T09:09:31;2.50;99.90
6696;DHT22;3385;48.928;10.330;2023-03-01T09:11:56;2.70;99.90
6696;DHT22;3385;48.928;10.330;2023-03-01T09:14:22;2.70;99.90
6696;DHT22;3385;48.928;10.330;2023-03-01T09:16:48;2.60;99.90
6696;DHT22;3385;48.928;10.330;2023-03-01T09:19:14;2.50;99.90
6696;DHT22;3385;48.928;10.330;2023-03-01T09:21:40;3.10;99.90
6696;DHT22;3385;48.928;10.330;2023-03-01T09:24:12;3.50;99.90
6696;DHT22;3385;48.928;10.330;2023-03-01T09:26:38;3.50;99.90
6696;DHT22;3385;48.928;10.330;2023-03-01T09:29:04;3.70;99.90
6696;DHT22;3385;48.928;10.330;2023-03-01T09:31:30;3.60;99.90
6696;DHT22;3385;48.928;10.330;2023-03-01T09:33:55;3.90;99.90
6696;DHT22;3385;48.928;10.330;2023-03-01T09:36:23;4.30;99.90
6696;DHT22;3385;48.928;10.330;2023-03-01T09:38:49;3.90;99.90
6696;DHT22;3385;48.928;10.330;2023-03-01T09:43:53;4.30;99.90
6696;DHT22;3385;48.928;10.330;2023-03-01T09:46:23;4.80;99.90
6696;DHT22;3385;48.928;10.330;2023-03-01T09:48:52;4.90;99.90
6696;DHT22;3385;48.928;10.330;2023-03-01T09:51:33;5.10;99.90
6696;DHT22;3385;48.928;10.330;2023-03-01T09:54:01;5.30;99.90
6696;DHT22;3385;48.928;10.330;2023-03-01T09:56:40;5.70;99.90
6696;DHT22;3385;48.928;10.330;2023-03-01T10:01:44;6.90;99.90
6696;DHT22;3385;48.928;10.330;2023-03-01T10:04:39;7.20;99.90
6696;DHT22;3385;48.928;10.330;2023-03-01T10:09:38;7.10;99.90
6696;DHT22;3385;48.928;10.330;2023-03-01T10:12:16;7.00;99.90
6696;DHT22;3385;48.928;10.330;2023-03-01T10:17:36;7.70;99.90
6696;DHT22;3385;48.928;10.330;2023-03-01T10:20:19;8.20;99.90
6696;DHT22;3385;48.928;10.330;2023-03-01T10:22:45;8.50;99.90
6696;DHT22;3385;48.928;10.330;2023-03-01T10:25:20;8.80;99.90
6696;DHT22;3385;48.928;10.330;2023-03-01T10:27:53;9.10;99.90
6696;DHT22;3385;48.928;10.330;2023-03-01T10:30:36;9.10;99.90
6696;DHT22;3385;48.928;10.330;2023-03-01T10:33:13;9.20;99.90
6696;DHT22;3385;48.928;10.330;2023-03-01T10:35:40;9.20;99.90
6696;DHT22;3385;48.928;10.330;2023-03-01T10:38:09;9.20;99.90
6696;DHT22;3385;48.928;10.330;2023-03-01T10:40:36;9.40;99.90
6696;DHT22;3385;48.928;10.330;2023-03-01T10:43:04;10.00;99.90
6696;DHT22;3385;48.928;10.330;2023-03-01T10:45:38;10.10;99.90
6696;DHT22;3385;48.928;10.330;2023-03-01T10:48:26;10.40;99.90
6696;DHT22;3385;48.928;10.330;2023-03-01T10:53:34;10.80;99.90
6696;DHT22;3385;48.928;10.330;2023-03-01T10:56:06;10.90;99.90
6696;DHT22;3385;48.928;10.330;2023-03-01T10:58:35;11.30;99.90
6696;DHT22;3385;48.928;10.330;2023-03-01T11:01:06;11.20;99.90
6696;DHT22;3385;48.928;10.330;2023-03-01T11:06:36;10.90;99.90
6696;DHT22;3385;48.928;10.330;2023-03-01T11:09:22;11.40;99.90
6696;DHT22;3385;48.928;10.330;2023-03-01T11:11:59;11.80;99.90
6696;DHT22;3385;48.928;10.330;2023-03-01T11:14:35;12.10;99.90
6696;DHT22;3385;48.928;10.330;2023-03-01T11:17:13;12.00;99.90
6696;DHT22;3385;48.928;10.330;2023-03-01T11:19:40;12.30;99.90
6696;DHT22;3385;48.928;10.330;2023-03-01T11:22:18;12.30;99.90
6696;DHT22;3385;48.928;10.330;2023-03-01T11:24:51;12.70;99.90
6696;DHT22;3385;48.928;10.330;2023-03-01T11:27:36;12.80;99.90
6696;DHT22;3385;48.928;10.330;2023-03-01T11:35:25;13.10;99.90
6696;DHT22;3385;48.928;10.330;2023-03-01T11:43:38;13.30;99.90
6696;DHT22;3385;48.928;10.330;2023-03-01T11:55:12;13.90;99.90
6696;DHT22;3385;48.928;10.330;2023-03-01T12:06:00;13.40;99.90
6696;DHT22;3385;48.928;10.330;2023-03-01T12:08:45;13.80;99.90
6696;DHT22;3385;48.928;10.330;2023-03-01T12:21:55;14.50;99.90
6696;DHT22;3385;48.928;10.330;2023-03-01T12:35:59;15.10;99.90
6696;DHT22;3385;48.928;10.330;2023-03-01T12:52:33;15.00;99.90
6696;DHT22;3385;48.928;10.330;2023-03-01T12:55:02;15.30;99.90
6696;DHT22;3385;48.928;10.330;2023-03-01T12:57:40;17.10;99.90
6696;DHT22;3385;48.928;10.330;2023-03-01T13:00:22;15.80;99.90
6696;DHT22;3385;48.928;10.330;2023-03-01T13:08:39;15.40;99.90
6696;DHT22;3385;48.928;10.330;2023-03-01T13:11:20;16.40;99.90
6696;DHT22;3385;48.928;10.330;2023-03-01T13:13:47;15.80;99.90
6696;DHT22;3385;48.928;10.330;2023-03-01T13:19:13;16.40;99.90
6696;DHT22;3385;48.928;10.330;2023-03-01T13:21:40;16.20;99.90
6696;DHT22;3385;48.928;10.330;2023-03-01T13:29:53;15.60;99.90
6696;DHT22;3385;48.928;10.330;2023-03-01T13:32:25;15.90;99.90
6696;DHT22;3385;48.928;10.330;2023-03-01T13:37:51;15.20;99.90
6696;DHT22;3385;48.928;10.330;2023-03-01T13:42:48;15.40;99.90
6696;DHT22;3385;48.928;10.330;2023-03-01T13:45:39;15.70;99.90
6696;DHT22;3385;48.928;10.330;2023-03-01T13:48:22;15.90;99.90
6696;DHT22;3385;48.928;10.330;2023-03-01T13:50:53;15.90;99.90
6696;DHT22;3385;48.928;10.330;2023-03-01T13:53:23;15.30;99.90
6696;DHT22;3385;48.928;10.330;2023-03-01T13:55:58;15.70;99.90
6696;DHT22;3385;48.928;10.330;2023-03-01T13:58:33;15.80;99.90
6696;DHT22;3385;48.928;10.330;2023-03-01T14:01:04;15.40;99.90
6696;DHT22;3385;48.928;10.330;2023-03-01T14:03:31;15.90;99.90
6696;DHT22;3385;48.928;10.330;2023-03-01T14:08:29;16.20;99.90
6696;DHT22;3385;48.928;10.330;2023-03-01T14:18:52;16.80;99.90
6696;DHT22;3385;48.928;10.330;2023-03-01T14:21:22;16.20;99.90
6696;DHT22;3385;48.928;10.330;2023-03-01T14:23:48;15.90;99.90
6696;DHT22;3385;48.928;10.330;2023-03-01T14:26:20;15.60;99.90
6696;DHT22;3385;48.928;10.330;2023-03-01T14:28:47;15.30;99.90
6696;DHT22;3385;48.928;10.330;2023-03-01T14:31:43;15.90;99.90
6696;DHT22;3385;48.928;10.330;2023-03-01T14:34:22;15.80;99.90
6696;DHT22;3385;48.928;10.330;2023-03-01T14:40:21;16.10;99.90
6696;DHT22;3385;48.928;10.330;2023-03-01T14:42:47;15.50;99.90
6696;DHT22;3385;48.928;10.330;2023-03-01T14:45:14;15.40;99.90
6696;DHT22;3385;48.928;10.330;2023-03-01T14:47:40;15.50;99.90
6696;DHT22;3385;48.928;10.330;2023-03-01T14:50:16;15.60;99.90
6696;DHT22;3385;48.928;10.330;2023-03-01T14:52:46;15.60;99.90
6696;DHT22;3385;48.928;10.330;2023-03-01T14:55:17;15.30;99.90
6696;DHT22;3385;48.928;10.330;2023-03-01T14:57:48;15.10;99.90
6696;DHT22;3385;48.928;10.330;2023-03-01T15:00:19;15.30;99.90
6696;DHT22;3385;48.928;10.330;2023-03-01T15:02:50;15.00;99.90
6696;DHT22;3385;48.928;10.330;2023-03-01T15:05:39;14.90;99.90
6696;DHT22;3385;48.928;10.330;2023-03-01T15:08:04;14.50;99.90
6696;DHT22;3385;48.928;10.330;2023-03-01T15:10:33;14.80;99.90
6696;DHT22;3385;48.928;10.330;2023-03-01T15:13:13;15.10;99.90
6696;DHT22;3385;48.928;10.330;2023-03-01T15:15:44;12.10;99.90
6696;DHT22;3385;48.928;10.330;2023-03-01T15:18:22;14.60;99.90
6696;DHT22;3385;48.928;10.330;2023-03-01T15:20:51;14.20;99.90
6696;DHT22;3385;48.928;10.330;2023-03-01T15:23:22;12.70;99.90
6696;DHT22;3385;48.928;10.330;2023-03-01T15:25:49;11.00;99.90
6696;DHT22;3385;48.928;10.330;2023-03-01T15:28:36;10.10;99.90
6696;DHT22;3385;48.928;10.330;2023-03-01T15:31:23;9.10;99.90
6696;DHT22;3385;48.928;10.330;2023-03-01T15:33:50;8.20;99.90
6696;DHT22;3385;48.928;10.330;2023-03-01T15:36:46;8.20;99.90
6696;DHT22;3385;48.928;10.330;2023-03-01T15:39:34;7.90;99.90
6696;DHT22;3385;48.928;10.330;2023-03-01T15:42:08;7.90;99.90
6696;DHT22;3385;48.928;10.330;2023-03-01T15:44:38;7.90;99.90
6696;DHT22;3385;48.928;10.330;2023-03-01T15:47:23;7.90;99.90
6696;DHT22;3385;48.928;10.330;2023-03-01T15:49:52;7.80;99.90
6696;DHT22;3385;48.928;10.330;2023-03-01T15:52:40;7.70;99.90
6696;DHT22;3385;48.928;10.330;2023-03-01T15:55:23;7.20;99.90
6696;DHT22;3385;48.928;10.330;2023-03-01T15:58:20;7.00;99.90
6696;DHT22;3385;48.928;10.330;2023-03-01T16:00:46;7.00;99.90
6696;DHT22;3385;48.928;10.330;2023-03-01T16:03:14;6.80;99.90
6696;DHT22;3385;48.928;10.330;2023-03-01T16:05:48;6.60;99.90
6696;DHT22;3385;48.928;10.330;2023-03-01T16:08:17;6.70;99.90
6696;DHT22;3385;48.928;10.330;2023-03-01T16:10:49;6.70;99.90
6696;DHT22;3385;48.928;10.330;2023-03-01T16:13:19;6.50;99.90
6696;DHT22;3385;48.928;10.330;2023-03-01T16:15:46;6.40;99.90
6696;DHT22;3385;48.928;10.330;2023-03-01T16:18:12;6.20;99.90
6696;DHT22;3385;48.928;10.330;2023-03-01T16:20:38;6.00;99.90
6696;DHT22;3385;48.928;10.330;2023-03-01T16:23:06;5.80;99.90
6696;DHT22;3385;48.928;10.330;2023-03-01T16:25:33;5.70;99.90
6696;DHT22;3385;48.928;10.330;2023-03-01T16:28:00;6.00;99.90
6696;DHT22;3385;48.928;10.330;2023-03-01T16:30:26;5.70;99.90
6696;DHT22;3385;48.928;10.330;2023-03-01T16:32:52;5.60;99.90
6696;DHT22;3385;48.928;10.330;2023-03-01T16:35:20;5.20;99.90
6696;DHT22;3385;48.928;10.330;2023-03-01T16:37:46;5.40;99.90
6696;DHT22;3385;48.928;10.330;2023-03-01T16:40:28;5.30;99.90
6696;DHT22;3385;48.928;10.330;2023-03-01T16:42:55;5.10;99.90
6696;DHT22;3385;48.928;10.330;2023-03-01T16:45:25;5.00;99.90
6696;DHT22;3385;48.928;10.330;2023-03-01T16:47:52;4.90;99.90
6696;DHT22;3385;48.928;10.330;2023-03-01T16:50:18;4.50;99.90
6696;DHT22;3385;48.928;10.330;2023-03-01T16:52:44;4.70;99.90
6696;DHT22;3385;48.928;10.330;2023-03-01T16:55:10;4.60;99.90
6696;DHT22;3385;48.928;10.330;2023-03-01T16:57:39;4.40;99.90
6696;DHT22;3385;48.928;10.330;2023-03-01T17:00:06;4.00;99.90
6696;DHT22;3385;48.928;10.330;2023-03-01T17:02:35;4.00;99.90
6696;DHT22;3385;48.928;10.330;2023-03-01T17:05:01;4.00;99.90
6696;DHT22;3385;48.928;10.330;2023-03-01T17:07:28;3.80;99.90
6696;DHT22;3385;48.928;10.330;2023-03-01T17:09:54;3.80;99.90
6696;DHT22;3385;48.928;10.330;2023-03-01T17:12:20;3.90;99.90
6696;DHT22;3385;48.928;10.330;2023-03-01T17:14:45;3.30;99.90
6696;DHT22;3385;48.928;10.330;2023-03-01T17:17:11;3.20;99.90
6696;DHT22;3385;48.928;10.330;2023-03-01T17:19:37;3.30;99.90
6696;DHT22;3385;48.928;10.330;2023-03-01T17:22:07;3.20;99.90
6696;DHT22;3385;48.928;10.330;2023-03-01T17:24:34;3.30;99.90
6696;DHT22;3385;48.928;10.330;2023-03-01T17:27:00;3.20;99.90
6696;DHT22;3385;48.928;10.330;2023-03-01T17:29:26;2.80;99.90
6696;DHT22;3385;48.928;10.330;2023-03-01T17:31:51;3.00;99.90
6696;DHT22;3385;48.928;10.330;2023-03-01T17:34:19;3.20;99.90
6696;DHT22;3385;48.928;10.330;2023-03-01T17:36:45;3.10;99.90
6696;DHT22;3385;48.928;10.330;2023-03-01T17:39:12;3.00;99.90
6696;DHT22;3385;48.928;10.330;2023-03-01T17:41:38;3.30;99.90
6696;DHT22;3385;48.928;10.330;2023-03-01T17:44:04;3.00;99.90
6696;DHT22;3385;48.928;10.330;2023-03-01T17:46:29;2.80;99.90
6696;DHT22;3385;48.928;10.330;2023-03-01T17:48:55;2.70;99.90
6696;DHT22;3385;48.928;10.330;2023-03-01T17:51:21;3.00;99.90
6696;DHT22;3385;48.928;10.330;2023-03-01T17:53:47;2.90;99.90
6696;DHT22;3385;48.928;10.330;2023-03-01T17:56:12;3.30;99.90
6696;DHT22;3385;48.928;10.330;2023-03-01T17:58:38;3.00;99.90
6696;DHT22;3385;48.928;10.330;2023-03-01T18:01:16;2.80;99.90
6696;DHT22;3385;48.928;10.330;2023-03-01T18:03:43;2.90;99.90
6696;DHT22;3385;48.928;10.330;2023-03-01T18:08:37;2.90;99.90
6696;DHT22;3385;48.928;10.330;2023-03-01T18:11:03;2.70;99.90
6696;DHT22;3385;48.928;10.330;2023-03-01T18:13:29;2.60;99.90
6696;DHT22;3385;48.928;10.330;2023-03-01T18:15:54;2.30;99.90
6696;DHT22;3385;48.928;10.330;2023-03-01T18:18:26;2.60;99.90